sensor_id;sensor_type;location;lat;lon;timestamp;temperature;humidity
70820;DHT22;58439;51.046;13.692;2022-09-13T00:00:22;13.30;83.80
70820;DHT22;58439;51.046;13.692;2022-09-13T00:03:32;13.30;83.90
70820;DHT22;58439;51.046;13.692;2022-09-13T00:06:31;13.30;83.90
70820;DHT22;58439;51.046;13.692;2022-09-13T00:09:31;13.30;83.90
70820;DHT22;58439;51.046;13.692;2022-09-13T00:12:04;13.20;83.70
70820;DHT22;58439;51.046;13.692;2022-09-13T00:14:32;13.20;83.60
70820;DHT22;58439;51.046;13.692;2022-09-13T00:17:09;13.20;83.80
70820;DHT22;58439;51.046;13.692;2022-09-13T00:19:51;13.20;83.90
70820;DHT22;58439;51.046;13.692;2022-09-13T00:22:27;13.10;83.90
70820;DHT22;58439;51.046;13.692;2022-09-13T00:24:54;13.10;84.10
70820;DHT22;58439;51.046;13.692;2022-09-13T00:27:22;13.10;84.10
70820;DHT22;58439;51.046;13.692;2022-09-13T00:29:49;13.00;84.10
70820;DHT22;58439;51.046;13.692;2022-09-13T00:32:18;13.00;84.30
70820;DHT22;58439;51.046;13.692;2022-09-13T00:34:47;13.00;84.60
70820;DHT22;58439;51.046;13.692;2022-09-13T00:37:16;13.00;84.60
70820;DHT22;58439;51.046;13.692;2022-09-13T00:39:52;13.00;84.50
70820;DHT22;58439;51.046;13.692;2022-09-13T00:51:27;12.90;84.80
70820;DHT22;58439;51.046;13.692;2022-09-13T00:54:16;12.90;85.00
70820;DHT22;58439;51.046;13.692;2022-09-13T00:56:57;12.90;85.00
70820;DHT22;58439;51.046;13.692;2022-09-13T00:59:59;12.90;84.90
70820;DHT22;58439;51.046;13.692;2022-09-13T01:03:14;12.90;84.90
70820;DHT22;58439;51.046;13.692;2022-09-13T01:05:51;12.90;85.00
70820;DHT22;58439;51.046;13.692;2022-09-13T01:08:23;12.90;85.00
70820;DHT22;58439;51.046;13.692;2022-09-13T01:11:10;12.90;84.70
70820;DHT22;58439;51.046;13.692;2022-09-13T01:13:44;12.90;84.70
70820;DHT22;58439;51.046;13.692;2022-09-13T01:16:13;12.90;84.90
70820;DHT22;58439;51.046;13.692;2022-09-13T01:18:48;12.90;84.90
70820;DHT22;58439;51.046;13.692;2022-09-13T01:28:17;12.80;85.30
70820;DHT22;58439;51.046;13.692;2022-09-13T01:31:35;12.80;85.30
70820;DHT22;58439;51.046;13.692;2022-09-13T01:37:53;12.70;85.50
70820;DHT22;58439;51.046;13.692;2022-09-13T01:44:13;12.70;85.30
70820;DHT22;58439;51.046;13.692;2022-09-13T01:50:33;12.60;85.30
70820;DHT22;58439;51.046;13.692;2022-09-13T02:00:08;12.60;85.30
70820;DHT22;58439;51.046;13.692;2022-09-13T02:03:18;12.60;85.40
70820;DHT22;58439;51.046;13.692;2022-09-13T02:06:21;12.60;85.70
70820;DHT22;58439;51.046;13.692;2022-09-13T02:09:27;12.50;85.60
70820;DHT22;58439;51.046;13.692;2022-09-13T02:12:10;12.50;85.70
70820;DHT22;58439;51.046;13.692;2022-09-13T02:14:51;12.50;85.80
70820;DHT22;58439;51.046;13.692;2022-09-13T02:17:31;12.50;85.70
70820;DHT22;58439;51.046;13.692;2022-09-13T02:20:12;12.50;85.70
70820;DHT22;58439;51.046;13.692;2022-09-13T02:22:53;12.50;85.60
70820;DHT22;58439;51.046;13.692;2022-09-13T02:25:27;12.40;85.60
70820;DHT22;58439;51.046;13.692;2022-09-13T02:28:10;12.40;85.80
70820;DHT22;58439;51.046;13.692;2022-09-13T02:30:49;12.40;85.70
70820;DHT22;58439;51.046;13.692;2022-09-13T02:33:31;12.30;85.70
70820;DHT22;58439;51.046;13.692;2022-09-13T02:36:09;12.30;86.00
70820;DHT22;58439;51.046;13.692;2022-09-13T02:44:34;12.30;86.60
70820;DHT22;58439;51.046;13.692;2022-09-13T02:48:06;12.30;86.70
70820;DHT22;58439;51.046;13.692;2022-09-13T02:50:48;12.30;87.00
70820;DHT22;58439;51.046;13.692;2022-09-13T02:53:44;12.30;86.50
70820;DHT22;58439;51.046;13.692;2022-09-13T02:56:33;12.40;86.50
70820;DHT22;58439;51.046;13.692;2022-09-13T02:59:18;12.40;86.40
70820;DHT22;58439;51.046;13.692;2022-09-13T03:33:55;12.40;85.80
70820;DHT22;58439;51.046;13.692;2022-09-13T03:42:30;12.50;85.80
70820;DHT22;58439;51.046;13.692;2022-09-13T03:45:04;12.50;85.70
70820;DHT22;58439;51.046;13.692;2022-09-13T03:47:35;12.50;85.60
70820;DHT22;58439;51.046;13.692;2022-09-13T03:50:08;12.50;85.60
70820;DHT22;58439;51.046;13.692;2022-09-13T03:52:36;12.50;85.60
70820;DHT22;58439;51.046;13.692;2022-09-13T03:55:08;12.40;85.50
70820;DHT22;58439;51.046;13.692;2022-09-13T03:57:36;12.40;85.70
70820;DHT22;58439;51.046;13.692;2022-09-13T04:00:04;12.50;85.60
70820;DHT22;58439;51.046;13.692;2022-09-13T04:02:37;12.40;85.50
70820;DHT22;58439;51.046;13.692;2022-09-13T04:05:07;12.40;85.40
70820;DHT22;58439;51.046;13.692;2022-09-13T04:07:35;12.50;85.50
70820;DHT22;58439;51.046;13.692;2022-09-13T04:10:02;12.40;85.50
70820;DHT22;58439;51.046;13.692;2022-09-13T04:12:37;12.40;86.40
70820;DHT22;58439;51.046;13.692;2022-09-13T04:15:07;12.40;85.70
70820;DHT22;58439;51.046;13.692;2022-09-13T04:17:35;12.40;85.50
70820;DHT22;58439;51.046;13.692;2022-09-13T04:20:03;12.30;85.80
70820;DHT22;58439;51.046;13.692;2022-09-13T04:22:31;12.40;86.10
70820;DHT22;58439;51.046;13.692;2022-09-13T04:24:59;12.40;86.30
70820;DHT22;58439;51.046;13.692;2022-09-13T04:27:32;12.40;86.00
70820;DHT22;58439;51.046;13.692;2022-09-13T04:30:26;12.40;86.20
70820;DHT22;58439;51.046;13.692;2022-09-13T04:32:58;12.50;86.40
70820;DHT22;58439;51.046;13.692;2022-09-13T04:35:26;12.50;86.00
70820;DHT22;58439;51.046;13.692;2022-09-13T04:37:56;12.50;85.90
70820;DHT22;58439;51.046;13.692;2022-09-13T04:40:24;12.50;85.80
70820;DHT22;58439;51.046;13.692;2022-09-13T04:42:51;12.60;85.70
70820;DHT22;58439;51.046;13.692;2022-09-13T04:45:18;12.50;85.60
70820;DHT22;58439;51.046;13.692;2022-09-13T04:47:53;12.50;85.40
70820;DHT22;58439;51.046;13.692;2022-09-13T04:50:24;12.60;85.50
70820;DHT22;58439;51.046;13.692;2022-09-13T04:52:54;12.60;85.30
70820;DHT22;58439;51.046;13.692;2022-09-13T04:55:26;12.60;85.20
70820;DHT22;58439;51.046;13.692;2022-09-13T04:57:56;12.60;85.20
70820;DHT22;58439;51.046;13.692;2022-09-13T05:00:24;12.60;85.10
70820;DHT22;58439;51.046;13.692;2022-09-13T05:02:55;12.70;85.10
70820;DHT22;58439;51.046;13.692;2022-09-13T05:05:25;12.70;84.80
70820;DHT22;58439;51.046;13.692;2022-09-13T05:07:55;12.70;84.90
70820;DHT22;58439;51.046;13.692;2022-09-13T05:10:28;12.80;84.70
70820;DHT22;58439;51.046;13.692;2022-09-13T05:12:56;12.80;84.70
70820;DHT22;58439;51.046;13.692;2022-09-13T05:15:25;12.80;84.40
70820;DHT22;58439;51.046;13.692;2022-09-13T05:21:34;12.90;84.30
70820;DHT22;58439;51.046;13.692;2022-09-13T05:29:02;13.10;83.70
70820;DHT22;58439;51.046;13.692;2022-09-13T05:32:57;13.20;83.40
70820;DHT22;58439;51.046;13.692;2022-09-13T05:45:22;13.50;82.30
70820;DHT22;58439;51.046;13.692;2022-09-13T05:48:02;13.70;82.20
70820;DHT22;58439;51.046;13.692;2022-09-13T05:50:45;13.80;81.70
70820;DHT22;58439;51.046;13.692;2022-09-13T05:53:24;13.90;81.20
70820;DHT22;58439;51.046;13.692;2022-09-13T05:55:58;13.90;80.80
70820;DHT22;58439;51.046;13.692;2022-09-13T05:58:46;14.00;80.30
70820;DHT22;58439;51.046;13.692;2022-09-13T06:04:49;14.10;80.50
70820;DHT22;58439;51.046;13.692;2022-09-13T06:14:53;14.50;80.20
70820;DHT22;58439;51.046;13.692;2022-09-13T06:17:21;14.70;79.30
70820;DHT22;58439;51.046;13.692;2022-09-13T06:19:48;14.90;78.30
70820;DHT22;58439;51.046;13.692;2022-09-13T06:22:22;15.10;77.50
70820;DHT22;58439;51.046;13.692;2022-09-13T06:25:09;15.40;76.80
70820;DHT22;58439;51.046;13.692;2022-09-13T06:28:00;15.60;75.90
70820;DHT22;58439;51.046;13.692;2022-09-13T06:30:40;15.90;74.90
70820;DHT22;58439;51.046;13.692;2022-09-13T06:33:11;15.90;74.40
70820;DHT22;58439;51.046;13.692;2022-09-13T06:36:04;16.00;74.50
70820;DHT22;58439;51.046;13.692;2022-09-13T06:38:41;16.10;73.70
70820;DHT22;58439;51.046;13.692;2022-09-13T07:11:26;17.40;69.10
70820;DHT22;58439;51.046;13.692;2022-09-13T07:13:57;17.60;68.90
70820;DHT22;58439;51.046;13.692;2022-09-13T07:16:30;17.70;68.60
70820;DHT22;58439;51.046;13.692;2022-09-13T07:19:12;17.80;68.60
70820;DHT22;58439;51.046;13.692;2022-09-13T07:21:43;18.00;68.40
70820;DHT22;58439;51.046;13.692;2022-09-13T07:24:13;18.10;68.50
70820;DHT22;58439;51.046;13.692;2022-09-13T07:26:41;18.30;68.10
70820;DHT22;58439;51.046;13.692;2022-09-13T07:29:12;18.40;67.20
70820;DHT22;58439;51.046;13.692;2022-09-13T07:31:44;18.50;67.30
70820;DHT22;58439;51.046;13.692;2022-09-13T07:34:18;18.60;66.40
70820;DHT22;58439;51.046;13.692;2022-09-13T07:36:48;18.80;66.60
70820;DHT22;58439;51.046;13.692;2022-09-13T07:39:16;19.00;66.10
70820;DHT22;58439;51.046;13.692;2022-09-13T07:41:49;19.00;65.40
70820;DHT22;58439;51.046;13.692;2022-09-13T07:44:18;19.00;65.40
70820;DHT22;58439;51.046;13.692;2022-09-13T07:51:04;18.70;65.70
70820;DHT22;58439;51.046;13.692;2022-09-13T07:53:38;18.40;66.30
70820;DHT22;58439;51.046;13.692;2022-09-13T07:56:11;18.10;66.90
70820;DHT22;58439;51.046;13.692;2022-09-13T07:58:46;18.00;67.40
70820;DHT22;58439;51.046;13.692;2022-09-13T08:01:20;17.90;67.90
70820;DHT22;58439;51.046;13.692;2022-09-13T08:06:24;17.70;69.30
70820;DHT22;58439;51.046;13.692;2022-09-13T08:08:55;17.60;70.40
70820;DHT22;58439;51.046;13.692;2022-09-13T08:11:37;17.50;71.30
70820;DHT22;58439;51.046;13.692;2022-09-13T08:14:09;17.40;72.30
70820;DHT22;58439;51.046;13.692;2022-09-13T08:16:40;17.30;72.30
70820;DHT22;58439;51.046;13.692;2022-09-13T08:19:33;17.30;73.80
70820;DHT22;58439;51.046;13.692;2022-09-13T08:22:12;17.20;75.00
70820;DHT22;58439;51.046;13.692;2022-09-13T08:34:19;17.90;75.80
70820;DHT22;58439;51.046;13.692;2022-09-13T08:37:57;18.30;75.00
70820;DHT22;58439;51.046;13.692;2022-09-13T08:40:39;18.40;74.00
70820;DHT22;58439;51.046;13.692;2022-09-13T08:46:26;18.40;73.60
70820;DHT22;58439;51.046;13.692;2022-09-13T08:49:45;18.30;74.40
70820;DHT22;58439;51.046;13.692;2022-09-13T09:08:07;18.60;74.30
70820;DHT22;58439;51.046;13.692;2022-09-13T09:10:50;18.60;74.40
70820;DHT22;58439;51.046;13.692;2022-09-13T09:18:11;18.70;74.30
70820;DHT22;58439;51.046;13.692;2022-09-13T09:20:49;18.80;73.90
70820;DHT22;58439;51.046;13.692;2022-09-13T09:24:23;18.90;73.70
70820;DHT22;58439;51.046;13.692;2022-09-13T09:26:56;19.00;73.10
70820;DHT22;58439;51.046;13.692;2022-09-13T09:29:30;19.00;73.10
70820;DHT22;58439;51.046;13.692;2022-09-13T09:39:26;19.80;72.10
70820;DHT22;58439;51.046;13.692;2022-09-13T09:42:00;20.40;70.30
70820;DHT22;58439;51.046;13.692;2022-09-13T09:44:39;20.60;69.20
70820;DHT22;58439;51.046;13.692;2022-09-13T09:47:23;20.90;69.00
70820;DHT22;58439;51.046;13.692;2022-09-13T09:50:05;21.00;68.30
70820;DHT22;58439;51.046;13.692;2022-09-13T09:53:15;21.10;68.40
70820;DHT22;58439;51.046;13.692;2022-09-13T09:56:23;21.30;68.40
70820;DHT22;58439;51.046;13.692;2022-09-13T09:58:55;21.50;66.10
70820;DHT22;58439;51.046;13.692;2022-09-13T10:01:29;21.70;65.60
70820;DHT22;58439;51.046;13.692;2022-09-13T10:04:20;21.80;64.20
70820;DHT22;58439;51.046;13.692;2022-09-13T10:06:50;22.00;63.10
70820;DHT22;58439;51.046;13.692;2022-09-13T10:20:37;23.20;56.90
70820;DHT22;58439;51.046;13.692;2022-09-13T10:24:55;23.50;53.30
70820;DHT22;58439;51.046;13.692;2022-09-13T10:27:56;23.90;51.50
70820;DHT22;58439;51.046;13.692;2022-09-13T10:30:43;24.00;49.60
70820;DHT22;58439;51.046;13.692;2022-09-13T10:33:27;24.20;49.30
70820;DHT22;58439;51.046;13.692;2022-09-13T10:36:11;24.30;49.20
70820;DHT22;58439;51.046;13.692;2022-09-13T10:39:14;24.20;46.90
70820;DHT22;58439;51.046;13.692;2022-09-13T10:41:51;24.00;46.50
70820;DHT22;58439;51.046;13.692;2022-09-13T10:44:28;23.70;46.70
70820;DHT22;58439;51.046;13.692;2022-09-13T10:47:10;23.70;46.90
70820;DHT22;58439;51.046;13.692;2022-09-13T10:49:53;23.90;47.10
70820;DHT22;58439;51.046;13.692;2022-09-13T10:52:45;24.90;44.00
70820;DHT22;58439;51.046;13.692;2022-09-13T10:55:34;26.10;41.20
70820;DHT22;58439;51.046;13.692;2022-09-13T11:01:02;26.60;38.80
70820;DHT22;58439;51.046;13.692;2022-09-13T11:03:57;27.10;38.10
70820;DHT22;58439;51.046;13.692;2022-09-13T11:22:50;28.30;34.10
70820;DHT22;58439;51.046;13.692;2022-09-13T11:25:42;28.40;32.10
70820;DHT22;58439;51.046;13.692;2022-09-13T11:34:35;28.90;30.90
70820;DHT22;58439;51.046;13.692;2022-09-13T11:43:27;29.30;31.50
70820;DHT22;58439;51.046;13.692;2022-09-13T11:46:23;29.50;31.60
70820;DHT22;58439;51.046;13.692;2022-09-13T11:49:36;30.00;30.60
70820;DHT22;58439;51.046;13.692;2022-09-13T11:55:27;30.00;29.60
70820;DHT22;58439;51.046;13.692;2022-09-13T11:58:05;29.90;29.40
70820;DHT22;58439;51.046;13.692;2022-09-13T12:00:51;29.60;29.40
70820;DHT22;58439;51.046;13.692;2022-09-13T12:07:52;28.70;30.80
70820;DHT22;58439;51.046;13.692;2022-09-13T12:11:17;28.40;30.80
70820;DHT22;58439;51.046;13.692;2022-09-13T12:14:42;28.20;31.10
70820;DHT22;58439;51.046;13.692;2022-09-13T12:17:32;27.50;31.90
70820;DHT22;58439;51.046;13.692;2022-09-13T12:21:09;26.90;32.90
70820;DHT22;58439;51.046;13.692;2022-09-13T12:30:31;27.40;31.50
70820;DHT22;58439;51.046;13.692;2022-09-13T12:33:26;27.90;30.20
70820;DHT22;58439;51.046;13.692;2022-09-13T12:36:16;28.10;30.00
70820;DHT22;58439;51.046;13.692;2022-09-13T12:39:08;28.30;30.00
70820;DHT22;58439;51.046;13.692;2022-09-13T12:52:29;27.60;32.90
70820;DHT22;58439;51.046;13.692;2022-09-13T12:55:42;27.20;31.20
70820;DHT22;58439;51.046;13.692;2022-09-13T13:01:24;26.40;32.50
70820;DHT22;58439;51.046;13.692;2022-09-13T13:07:06;26.40;32.60
70820;DHT22;58439;51.046;13.692;2022-09-13T13:09:51;26.20;32.90
70820;DHT22;58439;51.046;13.692;2022-09-13T13:12:41;26.00;33.40
70820;DHT22;58439;51.046;13.692;2022-09-13T13:17:53;26.30;33.70
70820;DHT22;58439;51.046;13.692;2022-09-13T13:20:46;26.60;33.90
70820;DHT22;58439;51.046;13.692;2022-09-13T13:23:37;27.20;32.40
70820;DHT22;58439;51.046;13.692;2022-09-13T13:31:34;28.90;30.30
70820;DHT22;58439;51.046;13.692;2022-09-13T13:42:00;31.40;27.90
70820;DHT22;58439;51.046;13.692;2022-09-13T13:50:16;30.00;27.40
70820;DHT22;58439;51.046;13.692;2022-09-13T13:54:30;29.40;27.90
70820;DHT22;58439;51.046;13.692;2022-09-13T13:57:27;28.30;28.70
70820;DHT22;58439;51.046;13.692;2022-09-13T14:16:53;25.70;33.90
70820;DHT22;58439;51.046;13.692;2022-09-13T14:19:45;25.60;34.10
70820;DHT22;58439;51.046;13.692;2022-09-13T14:22:24;25.50;34.30
70820;DHT22;58439;51.046;13.692;2022-09-13T14:24:56;25.50;34.40
70820;DHT22;58439;51.046;13.692;2022-09-13T14:31:34;25.40;34.60
70820;DHT22;58439;51.046;13.692;2022-09-13T14:34:28;25.30;35.40
70820;DHT22;58439;51.046;13.692;2022-09-13T14:37:04;25.10;35.90
70820;DHT22;58439;51.046;13.692;2022-09-13T14:40:09;25.00;36.50
70820;DHT22;58439;51.046;13.692;2022-09-13T14:42:48;24.90;36.90
70820;DHT22;58439;51.046;13.692;2022-09-13T14:45:19;24.70;37.50
70820;DHT22;58439;51.046;13.692;2022-09-13T15:01:32;24.00;40.10
70820;DHT22;58439;51.046;13.692;2022-09-13T15:04:38;23.80;41.10
70820;DHT22;58439;51.046;13.692;2022-09-13T15:07:34;23.70;41.60
70820;DHT22;58439;51.046;13.692;2022-09-13T15:10:33;23.70;42.10
70820;DHT22;58439;51.046;13.692;2022-09-13T15:14:26;23.70;42.50
70820;DHT22;58439;51.046;13.692;2022-09-13T15:17:12;23.70;42.70
70820;DHT22;58439;51.046;13.692;2022-09-13T15:19:51;23.60;42.90
70820;DHT22;58439;51.046;13.692;2022-09-13T15:22:41;23.70;43.30
70820;DHT22;58439;51.046;13.692;2022-09-13T15:25:26;23.70;43.30
70820;DHT22;58439;51.046;13.692;2022-09-13T15:28:22;23.70;43.50
70820;DHT22;58439;51.046;13.692;2022-09-13T15:30:57;23.70;43.60
70820;DHT22;58439;51.046;13.692;2022-09-13T15:33:43;23.70;43.80
70820;DHT22;58439;51.046;13.692;2022-09-13T15:36:27;23.80;44.00
70820;DHT22;58439;51.046;13.692;2022-09-13T15:39:24;23.70;44.10
70820;DHT22;58439;51.046;13.692;2022-09-13T15:41:57;23.70;44.40
70820;DHT22;58439;51.046;13.692;2022-09-13T15:44:27;23.70;44.50
70820;DHT22;58439;51.046;13.692;2022-09-13T15:47:00;23.60;44.60
70820;DHT22;58439;51.046;13.692;2022-09-13T15:49:32;23.60;44.80
70820;DHT22;58439;51.046;13.692;2022-09-13T15:52:18;23.50;45.10
70820;DHT22;58439;51.046;13.692;2022-09-13T15:54:50;23.50;45.50
70820;DHT22;58439;51.046;13.692;2022-09-13T15:57:24;23.50;45.50
70820;DHT22;58439;51.046;13.692;2022-09-13T16:00:19;23.50;45.50
70820;DHT22;58439;51.046;13.692;2022-09-13T16:03:21;23.50;45.50
70820;DHT22;58439;51.046;13.692;2022-09-13T16:06:05;23.50;45.60
70820;DHT22;58439;51.046;13.692;2022-09-13T16:08:51;23.50;45.50
70820;DHT22;58439;51.046;13.692;2022-09-13T16:11:19;23.40;45.70
70820;DHT22;58439;51.046;13.692;2022-09-13T16:13:52;23.30;45.60
70820;DHT22;58439;51.046;13.692;2022-09-13T16:16:41;23.30;45.80
70820;DHT22;58439;51.046;13.692;2022-09-13T16:25:28;23.20;45.90
70820;DHT22;58439;51.046;13.692;2022-09-13T16:28:23;23.00;46.00
70820;DHT22;58439;51.046;13.692;2022-09-13T16:30:52;23.00;46.20
70820;DHT22;58439;51.046;13.692;2022-09-13T16:33:23;23.00;46.30
70820;DHT22;58439;51.046;13.692;2022-09-13T16:35:55;22.90;46.70
70820;DHT22;58439;51.046;13.692;2022-09-13T16:38:29;22.90;46.80
70820;DHT22;58439;51.046;13.692;2022-09-13T16:41:12;22.80;46.70
70820;DHT22;58439;51.046;13.692;2022-09-13T16:43:40;22.80;47.10
70820;DHT22;58439;51.046;13.692;2022-09-13T16:46:29;22.70;47.30
70820;DHT22;58439;51.046;13.692;2022-09-13T16:48:59;22.60;47.50
70820;DHT22;58439;51.046;13.692;2022-09-13T16:51:33;22.60;47.90
70820;DHT22;58439;51.046;13.692;2022-09-13T16:54:02;22.50;48.20
70820;DHT22;58439;51.046;13.692;2022-09-13T16:56:33;22.50;48.20
70820;DHT22;58439;51.046;13.692;2022-09-13T16:59:01;22.40;48.50
70820;DHT22;58439;51.046;13.692;2022-09-13T17:01:33;22.40;48.90
70820;DHT22;58439;51.046;13.692;2022-09-13T17:04:05;22.30;49.00
70820;DHT22;58439;51.046;13.692;2022-09-13T17:06:38;22.30;49.40
70820;DHT22;58439;51.046;13.692;2022-09-13T17:09:10;22.20;50.00
70820;DHT22;58439;51.046;13.692;2022-09-13T17:11:39;22.20;50.10
70820;DHT22;58439;51.046;13.692;2022-09-13T17:14:12;22.10;50.30
70820;DHT22;58439;51.046;13.692;2022-09-13T17:16:46;22.10;50.90
70820;DHT22;58439;51.046;13.692;2022-09-13T17:19:19;22.00;51.20
70820;DHT22;58439;51.046;13.692;2022-09-13T17:21:53;22.00;51.70
70820;DHT22;58439;51.046;13.692;2022-09-13T17:25:03;21.90;52.30
70820;DHT22;58439;51.046;13.692;2022-09-13T17:29:47;21.80;52.00
70820;DHT22;58439;51.046;13.692;2022-09-13T17:40:34;21.40;53.30
70820;DHT22;58439;51.046;13.692;2022-09-13T17:44:02;21.30;53.90
70820;DHT22;58439;51.046;13.692;2022-09-13T17:47:04;21.30;54.00
70820;DHT22;58439;51.046;13.692;2022-09-13T17:49:48;21.20;54.20
70820;DHT22;58439;51.046;13.692;2022-09-13T17:52:18;21.20;54.30
70820;DHT22;58439;51.046;13.692;2022-09-13T17:55:00;21.10;54.40
70820;DHT22;58439;51.046;13.692;2022-09-13T17:57:48;21.00;54.60
70820;DHT22;58439;51.046;13.692;2022-09-13T18:00:30;20.90;54.80
70820;DHT22;58439;51.046;13.692;2022-09-13T18:15:57;20.50;56.30
70820;DHT22;58439;51.046;13.692;2022-09-13T18:18:27;20.30;56.60
70820;DHT22;58439;51.046;13.692;2022-09-13T18:20:56;20.30;57.20
70820;DHT22;58439;51.046;13.692;2022-09-13T18:23:28;20.20;57.40
70820;DHT22;58439;51.046;13.692;2022-09-13T18:26:03;20.20;57.60
70820;DHT22;58439;51.046;13.692;2022-09-13T18:28:37;20.10;57.90
70820;DHT22;58439;51.046;13.692;2022-09-13T18:31:12;20.10;58.20
70820;DHT22;58439;51.046;13.692;2022-09-13T18:33:44;20.00;58.60
70820;DHT22;58439;51.046;13.692;2022-09-13T18:36:23;19.90;58.90
70820;DHT22;58439;51.046;13.692;2022-09-13T18:38:55;19.80;60.20
70820;DHT22;58439;51.046;13.692;2022-09-13T18:41:25;19.80;59.70
70820;DHT22;58439;51.046;13.692;2022-09-13T18:43:56;19.70;60.00
70820;DHT22;58439;51.046;13.692;2022-09-13T18:46:27;19.60;60.20
70820;DHT22;58439;51.046;13.692;2022-09-13T18:49:01;19.60;60.40
70820;DHT22;58439;51.046;13.692;2022-09-13T18:51:39;19.60;60.50
70820;DHT22;58439;51.046;13.692;2022-09-13T18:54:16;19.60;60.60
70820;DHT22;58439;51.046;13.692;2022-09-13T18:56:45;19.60;60.60
70820;DHT22;58439;51.046;13.692;2022-09-13T18:59:14;19.70;60.50
70820;DHT22;58439;51.046;13.692;2022-09-13T19:01:42;19.60;60.50
70820;DHT22;58439;51.046;13.692;2022-09-13T19:04:17;19.70;60.50
70820;DHT22;58439;51.046;13.692;2022-09-13T19:06:49;19.70;60.50
70820;DHT22;58439;51.046;13.692;2022-09-13T19:09:23;19.70;60.40
70820;DHT22;58439;51.046;13.692;2022-09-13T19:11:52;19.70;60.30
70820;DHT22;58439;51.046;13.692;2022-09-13T19:14:39;19.70;60.30
70820;DHT22;58439;51.046;13.692;2022-09-13T19:17:14;19.60;60.20
70820;DHT22;58439;51.046;13.692;2022-09-13T19:19:42;19.60;60.00
70820;DHT22;58439;51.046;13.692;2022-09-13T19:22:11;19.70;59.90
70820;DHT22;58439;51.046;13.692;2022-09-13T19:24:38;19.60;59.70
70820;DHT22;58439;51.046;13.692;2022-09-13T19:27:10;19.70;59.40
70820;DHT22;58439;51.046;13.692;2022-09-13T19:29:40;19.70;59.70
70820;DHT22;58439;51.046;13.692;2022-09-13T19:52:06;19.10;61.80
70820;DHT22;58439;51.046;13.692;2022-09-13T19:54:37;19.10;62.10
70820;DHT22;58439;51.046;13.692;2022-09-13T19:57:06;19.00;62.40
70820;DHT22;58439;51.046;13.692;2022-09-13T19:59:39;19.00;62.50
70820;DHT22;58439;51.046;13.692;2022-09-13T20:02:23;18.90;62.80
70820;DHT22;58439;51.046;13.692;2022-09-13T20:06:11;18.80;62.60
70820;DHT22;58439;51.046;13.692;2022-09-13T20:08:43;18.70;63.30
70820;DHT22;58439;51.046;13.692;2022-09-13T20:11:15;18.70;63.70
70820;DHT22;58439;51.046;13.692;2022-09-13T20:13:47;18.70;64.10
70820;DHT22;58439;51.046;13.692;2022-09-13T20:16:31;18.60;64.50
70820;DHT22;58439;51.046;13.692;2022-09-13T20:19:33;18.60;65.10
70820;DHT22;58439;51.046;13.692;2022-09-13T20:22:35;18.50;65.50
70820;DHT22;58439;51.046;13.692;2022-09-13T20:28:43;18.50;66.60
70820;DHT22;58439;51.046;13.692;2022-09-13T20:32:01;18.40;66.70
70820;DHT22;58439;51.046;13.692;2022-09-13T20:34:34;18.30;67.10
70820;DHT22;58439;51.046;13.692;2022-09-13T20:37:31;18.30;67.30
70820;DHT22;58439;51.046;13.692;2022-09-13T20:40:10;18.30;67.80
70820;DHT22;58439;51.046;13.692;2022-09-13T20:43:03;18.20;67.90
70820;DHT22;58439;51.046;13.692;2022-09-13T20:46:11;18.20;68.50
70820;DHT22;58439;51.046;13.692;2022-09-13T20:52:33;18.10;68.90
70820;DHT22;58439;51.046;13.692;2022-09-13T21:01:20;18.10;69.70
70820;DHT22;58439;51.046;13.692;2022-09-13T21:16:14;18.00;70.10
70820;DHT22;58439;51.046;13.692;2022-09-13T21:19:24;18.00;70.70
70820;DHT22;58439;51.046;13.692;2022-09-13T21:22:24;18.00;71.20
70820;DHT22;58439;51.046;13.692;2022-09-13T21:26:48;17.90;70.60
70820;DHT22;58439;51.046;13.692;2022-09-13T21:36:10;17.90;71.10
70820;DHT22;58439;51.046;13.692;2022-09-13T21:40:02;17.90;71.30
70820;DHT22;58439;51.046;13.692;2022-09-13T21:42:42;17.90;71.50
70820;DHT22;58439;51.046;13.692;2022-09-13T21:45:26;17.90;71.80
70820;DHT22;58439;51.046;13.692;2022-09-13T21:47:54;17.80;72.30
70820;DHT22;58439;51.046;13.692;2022-09-13T21:50:21;17.70;72.20
70820;DHT22;58439;51.046;13.692;2022-09-13T21:52:49;17.70;73.00
70820;DHT22;58439;51.046;13.692;2022-09-13T21:55:37;17.70;73.10
70820;DHT22;58439;51.046;13.692;2022-09-13T21:58:30;17.70;73.50
70820;DHT22;58439;51.046;13.692;2022-09-13T22:06:16;17.60;73.70
70820;DHT22;58439;51.046;13.692;2022-09-13T22:15:43;17.60;73.50
70820;DHT22;58439;51.046;13.692;2022-09-13T22:19:11;17.60;73.70
70820;DHT22;58439;51.046;13.692;2022-09-13T22:36:01;17.40;74.90
70820;DHT22;58439;51.046;13.692;2022-09-13T22:51:02;17.20;75.50
70820;DHT22;58439;51.046;13.692;2022-09-13T22:54:44;17.20;76.10
70820;DHT22;58439;51.046;13.692;2022-09-13T22:57:25;17.20;76.80
70820;DHT22;58439;51.046;13.692;2022-09-13T23:00:01;17.20;77.20
70820;DHT22;58439;51.046;13.692;2022-09-13T23:02:45;17.20;77.30
70820;DHT22;58439;51.046;13.692;2022-09-13T23:05:15;17.20;77.00
70820;DHT22;58439;51.046;13.692;2022-09-13T23:07:59;17.10;77.10
70820;DHT22;58439;51.046;13.692;2022-09-13T23:12:01;17.20;77.20
70820;DHT22;58439;51.046;13.692;2022-09-13T23:16:53;17.10;77.30
70820;DHT22;58439;51.046;13.692;2022-09-13T23:21:31;17.10;77.50
70820;DHT22;58439;51.046;13.692;2022-09-13T23:49:55;16.90;78.10
70820;DHT22;58439;51.046;13.692;2022-09-13T23:53:02;16.80;78.80
70820;DHT22;58439;51.046;13.692;2022-09-13T23:55:39;16.90;78.70
